createdAt,value
2018-07-12T00:00:05.760Z,6.67
2018-07-12T00:02:33.427Z,8.03
2018-07-12T00:05:00.859Z,7.23
2018-07-12T00:07:28.380Z,6.77
2018-07-12T00:09:55.867Z,6.93
2018-07-12T00:12:23.321Z,7.17
2018-07-12T00:14:50.891Z,6.43
2018-07-12T00:17:18.370Z,7.80
2018-07-12T00:19:45.808Z,7.10
2018-07-12T00:22:13.310Z,6.33
2018-07-12T00:24:40.818Z,7.63
2018-07-12T00:27:08.236Z,6.83
2018-07-12T00:29:35.886Z,7.53
2018-07-12T00:32:03.562Z,6.70
2018-07-12T00:34:31.299Z,7.20
2018-07-12T00:36:59.113Z,7.40
2018-07-12T00:39:26.691Z,7.57
2018-07-12T00:41:54.182Z,6.60
2018-07-12T00:44:21.612Z,7.67
2018-07-12T00:46:49.210Z,6.57
2018-07-12T00:49:16.666Z,6.10
2018-07-12T00:51:44.226Z,6.20
2018-07-12T00:54:11.800Z,6.50
2018-07-12T00:56:39.382Z,6.37
2018-07-12T00:59:06.882Z,8.97
2018-07-12T01:01:34.394Z,6.33
2018-07-12T01:04:01.914Z,6.50
2018-07-12T01:06:29.474Z,8.07
2018-07-12T01:08:56.956Z,6.90
2018-07-12T01:11:24.358Z,6.23
2018-07-12T01:13:51.828Z,6.20
2018-07-12T01:16:19.290Z,6.17
2018-07-12T01:18:46.806Z,5.30
2018-07-12T01:21:14.231Z,8.67
2018-07-12T01:23:41.707Z,6.00
2018-07-12T01:26:09.183Z,6.07
2018-07-12T01:28:36.785Z,6.30
2018-07-12T01:31:04.246Z,6.00
2018-07-12T01:33:31.612Z,5.87
2018-07-12T01:35:59.088Z,5.93
2018-07-12T01:38:26.723Z,5.60
2018-07-12T01:40:54.280Z,5.30
2018-07-12T01:43:21.912Z,7.30
2018-07-12T01:45:49.402Z,5.50
2018-07-12T01:48:16.918Z,6.30
2018-07-12T01:50:44.452Z,5.77
2018-07-12T01:53:11.927Z,5.27
2018-07-12T01:55:39.383Z,6.00
2018-07-12T01:58:07.060Z,5.27
2018-07-12T02:00:34.617Z,5.80
2018-07-12T02:03:02.170Z,5.13
2018-07-12T02:05:29.639Z,5.70
2018-07-12T02:07:57.057Z,7.87
2018-07-12T02:10:24.531Z,5.90
2018-07-12T02:12:52.000Z,4.87
2018-07-12T02:15:19.483Z,5.83
2018-07-12T02:17:47.089Z,8.47
2018-07-12T02:20:14.960Z,5.47
2018-07-12T02:22:42.484Z,7.50
2018-07-12T02:25:09.946Z,7.53
2018-07-12T02:27:37.406Z,5.67
2018-07-12T02:30:04.905Z,5.00
2018-07-12T02:32:32.343Z,5.47
2018-07-12T02:34:59.876Z,5.90
2018-07-12T02:37:27.300Z,5.80
2018-07-12T02:39:57.842Z,5.40
2018-07-12T02:42:25.340Z,5.70
2018-07-12T02:44:53.048Z,5.97
2018-07-12T02:47:20.951Z,5.10
2018-07-12T02:49:48.576Z,6.07
2018-07-12T02:52:16.450Z,5.67
2018-07-12T02:54:44.282Z,5.90
2018-07-12T02:57:11.792Z,5.20
2018-07-12T02:59:39.400Z,7.63
2018-07-12T03:02:06.991Z,6.43
2018-07-12T03:04:34.583Z,7.53
2018-07-12T03:07:02.342Z,6.30
2018-07-12T03:09:29.993Z,6.37
2018-07-12T03:11:57.653Z,6.53
2018-07-12T03:14:25.283Z,5.83
2018-07-12T03:16:52.825Z,6.60
2018-07-12T03:19:20.316Z,6.30
2018-07-12T03:21:47.842Z,6.87
2018-07-12T03:24:15.427Z,8.20
2018-07-12T03:26:43.020Z,8.90
2018-07-12T03:29:10.546Z,7.57
2018-07-12T03:31:38.045Z,6.93
2018-07-12T03:34:05.671Z,8.13
2018-07-12T03:36:33.200Z,9.67
2018-07-12T03:39:00.792Z,6.57
2018-07-12T03:41:28.395Z,7.43
2018-07-12T03:43:55.895Z,6.50
2018-07-12T03:46:23.468Z,6.97
2018-07-12T03:48:51.116Z,6.70
2018-07-12T03:51:18.710Z,6.73
2018-07-12T03:53:46.236Z,6.47
2018-07-12T03:56:13.799Z,7.47
2018-07-12T03:58:41.336Z,7.63
2018-07-12T04:01:09.140Z,7.30
2018-07-12T04:03:36.717Z,10.30
2018-07-12T04:06:04.160Z,7.17
2018-07-12T04:08:31.713Z,7.63
2018-07-12T04:10:59.572Z,7.80
2018-07-12T04:13:27.129Z,8.03
2018-07-12T04:15:55.208Z,7.67
2018-07-12T04:18:22.918Z,7.20
2018-07-12T04:20:50.664Z,6.60
2018-07-12T04:23:18.410Z,8.57
2018-07-12T04:25:46.228Z,7.40
2018-07-12T04:28:14.051Z,9.17
2018-07-12T04:30:41.568Z,8.33
2018-07-12T04:33:09.095Z,7.43
2018-07-12T04:35:38.100Z,8.83
2018-07-12T04:38:05.572Z,9.37
2018-07-12T04:40:32.998Z,7.10
2018-07-12T04:43:00.716Z,10.27
2018-07-12T04:45:28.245Z,7.97
2018-07-12T04:47:55.832Z,8.83
2018-07-12T04:50:23.288Z,7.07
2018-07-12T04:52:50.801Z,7.50
2018-07-12T04:55:18.975Z,8.00
2018-07-12T04:57:46.504Z,10.70
2018-07-12T05:00:14.050Z,7.20
2018-07-12T05:02:41.539Z,7.23
2018-07-12T05:05:09.028Z,7.13
2018-07-12T05:07:36.479Z,8.13
2018-07-12T05:10:06.204Z,9.40
2018-07-12T05:12:33.752Z,7.13
2018-07-12T05:15:01.256Z,6.60
2018-07-12T05:17:28.728Z,6.60
2018-07-12T05:19:56.228Z,6.53
2018-07-12T05:22:23.766Z,6.87
2018-07-12T05:24:51.301Z,7.80
2018-07-12T05:27:18.771Z,8.20
2018-07-12T05:29:46.456Z,9.53
2018-07-12T05:32:14.135Z,7.63
2018-07-12T05:34:41.748Z,7.63
2018-07-12T05:37:10.618Z,8.23
2018-07-12T05:39:39.432Z,6.47
2018-07-12T05:42:08.381Z,5.77
2018-07-12T05:44:37.257Z,5.73
2018-07-12T05:47:06.075Z,8.60
2018-07-12T05:49:34.529Z,6.03
2018-07-12T05:52:03.563Z,5.60
2018-07-12T05:54:32.402Z,7.33
2018-07-12T05:57:01.541Z,6.10
2018-07-12T05:59:30.634Z,6.80
2018-07-12T06:02:10.553Z,6.60
2018-07-12T06:04:39.485Z,7.13
2018-07-12T06:07:08.758Z,5.80
2018-07-12T06:09:38.083Z,6.30
2018-07-12T06:12:07.042Z,7.83
2018-07-12T06:14:35.912Z,8.23
2018-07-12T06:17:04.792Z,7.50
2018-07-12T06:19:33.606Z,5.47
2018-07-12T06:22:02.604Z,6.97
2018-07-12T06:24:32.233Z,6.47
2018-07-12T06:27:01.460Z,7.20
2018-07-12T06:29:30.434Z,6.63
2018-07-12T06:31:59.287Z,5.53
2018-07-12T06:34:28.435Z,5.60
2018-07-12T06:36:57.329Z,5.57
2018-07-12T06:39:26.383Z,7.33
2018-07-12T06:41:55.091Z,6.93
2018-07-12T06:44:24.088Z,6.67
2018-07-12T06:46:52.672Z,5.73
2018-07-12T06:49:21.601Z,6.33
2018-07-12T06:51:50.598Z,5.50
2018-07-12T06:54:19.459Z,6.00
2018-07-12T06:56:48.348Z,5.50
2018-07-12T06:59:17.284Z,5.00
2018-07-12T07:01:46.234Z,6.73
2018-07-12T07:04:15.199Z,5.60
2018-07-12T07:06:44.192Z,6.63
2018-07-12T07:09:13.055Z,5.57
2018-07-12T07:11:41.994Z,5.53
2018-07-12T07:14:10.940Z,5.90
2018-07-12T07:16:39.907Z,5.67
2018-07-12T07:19:08.830Z,5.87
2018-07-12T07:21:37.682Z,5.10
2018-07-12T07:24:06.542Z,6.17
2018-07-12T07:26:35.270Z,5.07
2018-07-12T07:29:04.360Z,6.70
2018-07-12T07:31:33.117Z,5.20
2018-07-12T07:34:01.935Z,4.57
2018-07-12T07:36:30.734Z,6.47
2018-07-12T07:38:59.704Z,5.90
2018-07-12T07:41:28.222Z,5.10
2018-07-12T07:43:57.112Z,5.10
2018-07-12T07:46:25.927Z,5.93
2018-07-12T07:48:54.712Z,5.17
2018-07-12T07:51:23.661Z,4.60
2018-07-12T07:53:52.537Z,4.43
2018-07-12T07:56:21.467Z,5.58
2018-07-12T07:58:50.556Z,4.80
2018-07-12T08:01:19.515Z,4.57
2018-07-12T08:03:48.559Z,4.83
2018-07-12T08:06:17.391Z,4.28
2018-07-12T08:08:46.302Z,7.00
2018-07-12T08:11:15.254Z,5.67
2018-07-12T08:13:43.743Z,5.10
2018-07-12T08:16:12.783Z,4.37
2018-07-12T08:18:41.585Z,6.10
2018-07-12T08:21:13.646Z,4.00
2018-07-12T08:23:43.151Z,5.90
2018-07-12T08:26:12.069Z,4.47
2018-07-12T08:28:40.814Z,4.43
2018-07-12T08:31:09.636Z,3.97
2018-07-12T08:33:38.546Z,4.23
2018-07-12T08:36:07.462Z,5.27
2018-07-12T08:38:36.226Z,4.20
2018-07-12T08:41:05.602Z,6.00
2018-07-12T08:43:34.441Z,3.50
2018-07-12T08:46:03.317Z,3.60
2018-07-12T08:48:32.162Z,3.13
2018-07-12T08:51:01.473Z,5.37
2018-07-12T08:53:30.392Z,3.30
2018-07-12T08:55:59.299Z,2.90
2018-07-12T08:58:28.040Z,2.77
2018-07-12T09:00:56.868Z,5.00
2018-07-12T09:03:25.628Z,3.17
2018-07-12T09:05:54.494Z,5.27
2018-07-12T09:08:23.375Z,2.93
2018-07-12T09:10:52.387Z,2.90
2018-07-12T09:13:21.346Z,3.47
2018-07-12T09:15:50.281Z,3.00
2018-07-12T09:18:19.046Z,4.53
2018-07-12T09:20:47.906Z,5.50
2018-07-12T09:23:16.737Z,3.30
2018-07-12T09:25:45.506Z,3.17
2018-07-12T09:28:14.232Z,3.10
2018-07-12T09:30:43.140Z,2.77
2018-07-12T09:33:11.947Z,4.30
2018-07-12T09:35:40.740Z,3.57
2018-07-12T09:38:20.824Z,3.27
2018-07-12T09:40:49.494Z,5.50
2018-07-12T09:43:18.294Z,5.60
2018-07-12T09:45:47.006Z,4.63
2018-07-12T09:48:15.941Z,4.00
2018-07-12T09:50:44.778Z,5.63
2018-07-12T09:53:13.646Z,3.37
2018-07-12T09:55:42.595Z,4.87
2018-07-12T09:58:22.394Z,3.37
2018-07-12T10:00:56.348Z,2.97
2018-07-12T10:03:29.348Z,3.20
2018-07-12T10:05:58.714Z,5.47
2018-07-12T10:08:33.050Z,3.67
2018-07-12T10:11:07.021Z,3.12
2018-07-12T10:13:41.046Z,4.12
2018-07-12T10:16:15.286Z,3.42
2018-07-12T10:18:44.158Z,3.23
2018-07-12T10:21:12.966Z,4.73
2018-07-12T10:23:41.884Z,3.17
2018-07-12T10:26:10.690Z,3.07
2018-07-12T10:28:40.770Z,3.10
2018-07-12T10:31:09.558Z,3.20
2018-07-12T10:33:38.382Z,2.90
2018-07-12T10:36:07.139Z,3.33
2018-07-12T10:38:35.821Z,3.73
2018-07-12T10:41:04.706Z,4.03
2018-07-12T10:43:33.656Z,4.53
2018-07-12T10:46:02.545Z,3.73
2018-07-12T10:48:31.328Z,3.97
2018-07-12T10:51:00.275Z,4.07
2018-07-12T10:53:29.166Z,3.33
2018-07-12T10:55:58.048Z,3.37
2018-07-12T10:58:27.307Z,4.60
2018-07-12T11:00:56.412Z,3.70
2018-07-12T11:03:25.140Z,5.13
2018-07-12T11:05:54.040Z,3.43
2018-07-12T11:08:22.983Z,5.63
2018-07-12T11:10:51.975Z,3.33
2018-07-12T11:13:30.849Z,3.40
2018-07-12T11:15:59.686Z,4.67
2018-07-12T11:18:28.707Z,5.00
2018-07-12T11:20:57.708Z,11.10
2018-07-12T11:23:26.478Z,3.37
2018-07-12T11:25:55.298Z,3.35
2018-07-12T11:28:24.190Z,3.72
2018-07-12T11:30:52.966Z,4.83
2018-07-12T11:33:37.723Z,3.12
2018-07-12T11:36:07.101Z,2.90
2018-07-12T11:38:37.771Z,4.80
2018-07-12T11:41:07.207Z,3.67
2018-07-12T11:43:36.018Z,3.20
2018-07-12T11:46:06.097Z,4.12
2018-07-12T11:48:36.105Z,3.02
2018-07-12T11:51:05.063Z,3.00
2018-07-12T11:53:34.170Z,3.15
2018-07-12T11:56:03.310Z,3.37
2018-07-12T11:58:32.237Z,3.47
2018-07-12T12:01:01.415Z,2.95
2018-07-12T12:03:30.883Z,2.90
2018-07-12T12:05:59.860Z,2.87
2018-07-12T12:08:28.732Z,3.27
2018-07-12T12:10:57.656Z,4.65
2018-07-12T12:13:26.509Z,4.08
2018-07-12T12:15:55.461Z,2.85
2018-07-12T12:18:24.329Z,4.78
2018-07-12T12:20:53.350Z,4.25
2018-07-12T12:23:22.168Z,3.02
2018-07-12T12:25:50.893Z,5.50
2018-07-12T12:28:19.940Z,4.40
2018-07-12T12:30:48.800Z,4.03
2018-07-12T12:33:17.564Z,4.65
2018-07-12T12:35:46.390Z,2.87
2018-07-12T12:38:15.243Z,3.40
2018-07-12T12:40:43.971Z,4.13
2018-07-12T12:43:12.740Z,3.10
2018-07-12T12:45:41.522Z,5.27
2018-07-12T12:48:10.237Z,3.00
2018-07-12T12:50:39.017Z,3.00
2018-07-12T12:53:07.757Z,4.20
2018-07-12T12:55:36.545Z,3.80
2018-07-12T12:58:05.379Z,3.33
2018-07-12T13:00:34.239Z,2.87
2018-07-12T13:03:03.063Z,3.33
2018-07-12T13:05:31.748Z,4.47
2018-07-12T13:08:00.439Z,3.53
2018-07-12T13:10:29.097Z,4.07
2018-07-12T13:12:57.833Z,3.07
2018-07-12T13:15:26.644Z,4.43
2018-07-12T13:17:55.431Z,5.90
2018-07-12T13:20:24.191Z,4.10
2018-07-12T13:22:53.220Z,2.83
2018-07-12T13:25:22.156Z,2.70
2018-07-12T13:27:51.079Z,2.33
2018-07-12T13:30:20.000Z,2.80
2018-07-12T13:32:48.784Z,2.50
2018-07-12T13:35:17.610Z,2.50
2018-07-12T13:37:46.304Z,5.40
2018-07-12T13:40:15.099Z,2.40
2018-07-12T13:42:43.856Z,2.50
2018-07-12T13:45:12.600Z,2.13
2018-07-12T13:47:41.424Z,3.57
2018-07-12T13:50:10.144Z,2.40
2018-07-12T13:52:38.963Z,2.17
2018-07-12T13:55:07.783Z,2.20
2018-07-12T13:57:36.646Z,2.40
2018-07-12T14:00:05.475Z,2.30
2018-07-12T14:02:34.210Z,2.40
2018-07-12T14:05:03.075Z,3.30
2018-07-12T14:07:32.412Z,2.90
2018-07-12T14:10:01.314Z,2.27
2018-07-12T14:12:30.104Z,3.00
2018-07-12T14:14:58.739Z,2.67
2018-07-12T14:17:27.684Z,2.90
2018-07-12T14:19:56.537Z,2.67
2018-07-12T14:22:25.404Z,3.43
2018-07-12T14:24:54.087Z,2.60
2018-07-12T14:27:22.890Z,2.60
2018-07-12T14:29:51.575Z,3.57
2018-07-12T14:32:20.200Z,5.13
2018-07-12T14:34:48.940Z,2.40
2018-07-12T14:37:17.680Z,2.23
2018-07-12T14:39:46.443Z,2.30
2018-07-12T14:42:15.142Z,2.50
2018-07-12T14:44:43.964Z,2.63
2018-07-12T14:47:12.680Z,2.50
2018-07-12T14:49:41.378Z,2.60
2018-07-12T14:52:10.108Z,3.00
2018-07-12T14:54:38.903Z,4.90
2018-07-12T14:57:07.764Z,3.33
2018-07-12T14:59:37.715Z,2.77
2018-07-12T15:02:06.638Z,2.60
2018-07-12T15:04:35.378Z,4.67
2018-07-12T15:07:04.344Z,2.77
2018-07-12T15:09:33.236Z,3.63
2018-07-12T15:12:01.906Z,2.57
2018-07-12T15:14:30.709Z,3.33
2018-07-12T15:16:59.476Z,3.17
2018-07-12T15:19:28.269Z,2.50
2018-07-12T15:21:57.030Z,3.33
2018-07-12T15:24:26.075Z,2.23
2018-07-12T15:26:54.944Z,4.43
2018-07-12T15:29:23.738Z,4.27
2018-07-12T15:31:52.445Z,2.50
2018-07-12T15:34:20.835Z,3.73
2018-07-12T15:36:49.666Z,2.70
2018-07-12T15:39:18.354Z,2.90
2018-07-12T15:41:47.125Z,3.47
2018-07-12T15:44:15.762Z,2.50
2018-07-12T15:46:44.513Z,6.30
2018-07-12T15:49:13.294Z,3.03
2018-07-12T15:51:42.154Z,3.03
2018-07-12T15:54:11.055Z,2.60
2018-07-12T15:56:39.854Z,5.23
2018-07-12T15:59:08.752Z,5.53
2018-07-12T16:01:37.417Z,2.80
2018-07-12T16:04:06.133Z,3.67
2018-07-12T16:06:34.883Z,2.73
2018-07-12T16:09:03.797Z,5.33
2018-07-12T16:11:32.472Z,6.63
2018-07-12T16:14:01.251Z,3.20
2018-07-12T16:16:30.124Z,2.83
2018-07-12T16:18:58.826Z,3.27
2018-07-12T16:21:27.547Z,2.67
2018-07-12T16:23:56.260Z,3.30
2018-07-12T16:26:25.075Z,2.90
2018-07-12T16:28:53.795Z,2.57
2018-07-12T16:31:22.563Z,2.73
2018-07-12T16:33:51.208Z,3.07
2018-07-12T16:36:20.016Z,3.10
2018-07-12T16:38:48.785Z,2.63
2018-07-12T16:41:17.468Z,3.73
2018-07-12T16:43:46.227Z,3.43
2018-07-12T16:46:14.931Z,2.50
2018-07-12T16:48:43.665Z,3.17
2018-07-12T16:51:12.410Z,2.80
2018-07-12T16:53:41.266Z,2.60
2018-07-12T16:56:09.969Z,6.60
2018-07-12T16:58:38.780Z,3.40
2018-07-12T17:01:07.447Z,2.63
2018-07-12T17:03:36.177Z,2.90
2018-07-12T17:06:04.860Z,2.70
2018-07-12T17:08:33.225Z,2.90
2018-07-12T17:11:02.019Z,2.77
2018-07-12T17:13:30.386Z,2.60
2018-07-12T17:15:59.114Z,2.60
2018-07-12T17:18:28.059Z,3.30
2018-07-12T17:20:56.778Z,2.93
2018-07-12T17:23:25.419Z,3.97
2018-07-12T17:25:54.250Z,2.73
2018-07-12T17:28:22.976Z,3.27
2018-07-12T17:30:51.644Z,2.90
2018-07-12T17:33:20.463Z,3.40
2018-07-12T17:35:49.328Z,2.73
2018-07-12T17:38:17.956Z,2.40
2018-07-12T17:40:46.768Z,2.97
2018-07-12T17:43:15.515Z,3.40
2018-07-12T17:45:44.190Z,2.50
2018-07-12T17:48:12.984Z,2.93
2018-07-12T17:50:41.765Z,2.70
2018-07-12T17:53:10.558Z,2.83
2018-07-12T17:55:39.260Z,2.80
2018-07-12T17:58:08.048Z,2.50
2018-07-12T18:00:36.822Z,2.43
2018-07-12T18:03:05.751Z,2.83
2018-07-12T18:05:34.554Z,4.57
2018-07-12T18:08:03.345Z,3.03
2018-07-12T18:10:32.144Z,2.87
2018-07-12T18:13:00.901Z,3.07
2018-07-12T18:15:29.651Z,3.20
2018-07-12T18:17:58.239Z,4.23
2018-07-12T18:20:26.936Z,3.03
2018-07-12T18:22:55.756Z,4.27
2018-07-12T18:25:24.527Z,3.30
2018-07-12T18:27:53.375Z,3.90
2018-07-12T18:30:22.154Z,3.67
2018-07-12T18:32:50.906Z,2.70
2018-07-12T18:35:19.595Z,3.07
2018-07-12T18:37:48.254Z,3.80
2018-07-12T18:40:17.084Z,3.43
2018-07-12T18:42:45.788Z,3.17
2018-07-12T18:45:14.450Z,3.00
2018-07-12T18:47:43.156Z,3.03
2018-07-12T18:50:11.437Z,2.63
2018-07-12T18:52:40.125Z,3.10
2018-07-12T18:55:08.802Z,4.10
2018-07-12T18:57:37.240Z,2.83
2018-07-12T19:00:06.128Z,3.40
2018-07-12T19:02:34.975Z,2.77
2018-07-12T19:05:03.640Z,3.13
2018-07-12T19:07:32.386Z,4.63
2018-07-12T19:10:00.970Z,6.37
2018-07-12T19:12:29.662Z,3.67
2018-07-12T19:14:58.418Z,2.80
2018-07-12T19:17:27.069Z,3.53
2018-07-12T19:19:56.554Z,3.37
2018-07-12T19:22:25.335Z,3.23
2018-07-12T19:24:53.998Z,3.70
2018-07-12T19:27:22.724Z,3.37
2018-07-12T19:29:51.426Z,3.07
2018-07-12T19:32:20.116Z,4.13
2018-07-12T19:34:48.455Z,5.97
2018-07-12T19:37:16.992Z,3.47
2018-07-12T19:39:46.084Z,3.23
2018-07-12T19:42:14.764Z,3.13
2018-07-12T19:44:43.395Z,3.10
2018-07-12T19:47:12.032Z,2.77
2018-07-12T19:49:40.754Z,4.13
2018-07-12T19:52:09.350Z,3.67
2018-07-12T19:54:38.124Z,3.23
2018-07-12T19:57:06.844Z,3.47
2018-07-12T19:59:35.548Z,6.70
2018-07-12T20:02:04.222Z,3.83
2018-07-12T20:04:32.928Z,3.80
2018-07-12T20:07:02.674Z,3.97
2018-07-12T20:09:31.178Z,3.63
2018-07-12T20:11:59.730Z,3.40
2018-07-12T20:14:28.207Z,4.37
2018-07-12T20:16:56.866Z,3.67
2018-07-12T20:19:25.346Z,6.03
2018-07-12T20:21:53.861Z,4.07
2018-07-12T20:24:23.271Z,3.20
2018-07-12T20:26:51.935Z,6.20
2018-07-12T20:29:20.577Z,3.77
2018-07-12T20:31:49.407Z,3.73
2018-07-12T20:34:17.687Z,3.60
2018-07-12T20:36:45.935Z,4.10
2018-07-12T20:39:14.622Z,3.97
2018-07-12T20:41:43.350Z,4.13
2018-07-12T20:44:11.951Z,5.97
2018-07-12T20:46:42.397Z,7.20
2018-07-12T20:49:11.011Z,4.30
2018-07-12T20:51:39.677Z,5.03
2018-07-12T20:54:08.364Z,4.40
2018-07-12T20:56:37.103Z,4.10
2018-07-12T20:59:05.881Z,4.67
2018-07-12T21:01:35.411Z,4.17
2018-07-12T21:04:04.212Z,4.80
2018-07-12T21:06:32.973Z,6.80
2018-07-12T21:09:01.832Z,4.67
2018-07-12T21:11:30.620Z,5.20
2018-07-12T21:13:59.317Z,7.27
2018-07-12T21:16:28.000Z,4.67
2018-07-12T21:18:56.844Z,5.27
2018-07-12T21:21:25.531Z,5.00
2018-07-12T21:23:54.274Z,4.20
2018-07-12T21:26:22.944Z,6.37
2018-07-12T21:28:51.701Z,4.53
2018-07-12T21:31:21.905Z,5.63
2018-07-12T21:33:50.637Z,4.40
2018-07-12T21:36:19.191Z,4.77
2018-07-12T21:38:48.016Z,4.97
2018-07-12T21:41:16.672Z,7.63
2018-07-12T21:43:45.359Z,5.20
2018-07-12T21:46:13.967Z,5.33
2018-07-12T21:48:42.628Z,4.70
2018-07-12T21:51:11.183Z,5.53
2018-07-12T21:53:41.941Z,4.60
2018-07-12T21:56:10.607Z,5.07
2018-07-12T21:58:39.307Z,5.60
2018-07-12T22:01:07.930Z,5.27
2018-07-12T22:03:36.588Z,5.20
2018-07-12T22:06:05.347Z,5.43
2018-07-12T22:08:34.007Z,5.53
2018-07-12T22:11:04.997Z,5.60
2018-07-12T22:13:35.185Z,6.40
2018-07-12T22:16:03.839Z,5.67
2018-07-12T22:18:32.535Z,5.60
2018-07-12T22:21:01.361Z,9.67
2018-07-12T22:23:30.179Z,7.83
2018-07-12T22:25:58.906Z,6.90
2018-07-12T22:28:27.640Z,5.03
2018-07-12T22:30:56.372Z,6.57
2018-07-12T22:33:24.980Z,5.67
2018-07-12T22:35:53.749Z,5.80
2018-07-12T22:38:22.395Z,7.07
2018-07-12T22:40:51.114Z,5.90
2018-07-12T22:43:19.758Z,5.80
2018-07-12T22:45:49.099Z,6.03
2018-07-12T22:48:17.845Z,5.80
2018-07-12T22:50:46.580Z,5.80
2018-07-12T22:53:15.282Z,7.70
2018-07-12T22:55:44.026Z,5.30
2018-07-12T22:58:12.698Z,5.90
2018-07-12T23:00:43.050Z,5.70
2018-07-12T23:03:11.802Z,5.87
2018-07-12T23:05:40.544Z,6.13
2018-07-12T23:08:09.311Z,5.40
2018-07-12T23:10:38.032Z,6.57
2018-07-12T23:13:06.788Z,5.60
2018-07-12T23:15:35.538Z,6.03
2018-07-12T23:18:04.206Z,5.43
2018-07-12T23:20:33.790Z,6.40
2018-07-12T23:23:02.580Z,5.87
2018-07-12T23:25:31.268Z,5.30
2018-07-12T23:27:59.881Z,5.23
2018-07-12T23:30:28.562Z,6.97
2018-07-12T23:32:57.282Z,6.30
2018-07-12T23:35:26.078Z,6.27
2018-07-12T23:37:54.829Z,6.77
2018-07-12T23:40:23.505Z,8.70
2018-07-12T23:42:52.192Z,7.37
2018-07-12T23:45:20.889Z,6.37
2018-07-12T23:47:49.577Z,5.23
2018-07-12T23:50:18.420Z,8.53
2018-07-12T23:52:47.124Z,6.07
2018-07-12T23:55:15.950Z,6.13
2018-07-12T23:57:44.697Z,5.33
